Time;durP1;ratioP1;P1;durP2;ratioP2;P2;SDS_P1;SDS_P2;PMS_P1;PMS_P2;Temp;Humidity;BMP_temperature;BMP_pressure;BME280_temperature;BME280_humidity;BME280_pressure;Samples;Min_cycle;Max_cycle;Signal;HPM_P1;HPM_P2
2023/04/06 00:02:09;;;;;;;11.25;6.55;;;2.60;99.90;;;;;;5047399;28;20355;-67
2023/04/06 00:04:34;;;;;;;10.18;6.13;;;2.70;99.90;;;;;;5048141;28;20033;-67
2023/04/06 00:07:00;;;;;;;12.27;6.40;;;2.50;99.90;;;;;;5048784;28;20410;-66
2023/04/06 00:09:26;;;;;;;10.90;6.35;;;2.60;99.90;;;;;;5028065;28;20469;-66
2023/04/06 00:11:51;;;;;;;10.10;6.28;;;2.60;99.90;;;;;;5047077;28;20052;-67
2023/04/06 00:14:17;;;;;;;9.80;6.28;;;2.70;99.90;;;;;;5049279;28;20040;-67
2023/04/06 00:16:43;;;;;;;9.95;6.05;;;2.50;99.90;;;;;;5051001;28;20037;-67
2023/04/06 00:19:09;;;;;;;9.38;5.47;;;;;;;;;;5046222;28;20120;-67
2023/04/06 00:21:34;;;;;;;9.82;5.85;;;2.60;99.90;;;;;;5047908;28;20645;-68
2023/04/06 00:24:00;;;;;;;11.05;6.43;;;2.50;99.90;;;;;;5049227;28;20037;-68
2023/04/06 00:26:26;;;;;;;9.52;5.97;;;2.20;99.90;;;;;;5046714;28;20093;-67
2023/04/06 00:28:52;;;;;;;9.13;5.68;;;;;;;;;;5051175;28;20537;-67
2023/04/06 00:31:18;;;;;;;9.70;6.38;;;2.40;99.90;;;;;;5037854;28;20167;-68
2023/04/06 00:33:43;;;;;;;9.20;6.15;;;2.50;99.90;;;;;;5043591;28;20112;-67
2023/04/06 00:36:09;;;;;;;10.23;5.57;;;2.40;99.90;;;;;;5052252;28;20028;-68
2023/04/06 00:38:34;;;;;;;9.90;6.05;;;2.20;99.90;;;;;;5049506;28;20036;-68
2023/04/06 00:41:00;;;;;;;11.75;6.57;;;2.30;99.90;;;;;;5049223;28;20098;-67
2023/04/06 00:43:26;;;;;;;10.13;6.07;;;2.10;99.90;;;;;;5050010;28;20025;-68
2023/04/06 00:45:52;;;;;;;8.70;6.00;;;;;;;;;;5043175;28;20381;-68
2023/04/06 00:48:18;;;;;;;9.40;5.50;;;;;;;;;;5039704;28;20138;-67
2023/04/06 00:50:44;;;;;;;9.15;6.10;;;2.40;99.90;;;;;;5041654;28;20506;-68
2023/04/06 00:53:10;;;;;;;10.00;5.60;;;2.30;99.90;;;;;;5046201;28;20047;-67
2023/04/06 00:55:36;;;;;;;10.85;6.07;;;;;;;;;;5034377;28;20033;-67
2023/04/06 00:58:02;;;;;;;14.15;7.13;;;;;;;;;;5046449;28;20572;-68
2023/04/06 01:00:28;;;;;;;9.82;6.53;;;1.80;99.90;;;;;;5048613;28;20033;-67
2023/04/06 01:02:54;;;;;;;10.77;6.70;;;;;;;;;;5049718;28;20087;-67
2023/04/06 01:05:20;;;;;;;9.25;5.90;;;1.90;99.90;;;;;;5044487;28;20087;-67
2023/04/06 01:07:45;;;;;;;9.35;5.97;;;2.00;99.90;;;;;;5048758;28;20045;-67
2023/04/06 01:10:11;;;;;;;9.88;6.10;;;;;;;;;;5045283;28;20415;-67
2023/04/06 01:12:38;;;;;;;11.77;5.70;;;1.90;99.90;;;;;;5049520;28;20540;-67
2023/04/06 01:15:05;;;;;;;9.95;6.03;;;;;;;;;;5044480;28;20473;-67
2023/04/06 01:17:31;;;;;;;10.48;5.80;;;1.90;99.90;;;;;;5065707;28;20120;-67
2023/04/06 01:19:56;;;;;;;9.00;5.72;;;1.90;99.90;;;;;;5046534;28;20120;-67
2023/04/06 01:22:24;;;;;;;11.85;6.65;;;;;;;;;;5050058;28;20112;-67
2023/04/06 01:24:50;;;;;;;10.43;6.32;;;1.70;99.90;;;;;;5046843;28;20056;-67
2023/04/06 01:27:16;;;;;;;13.27;6.30;;;1.90;99.90;;;;;;5041622;28;20033;-67
2023/04/06 01:29:42;;;;;;;13.32;6.78;;;1.70;99.90;;;;;;5054629;28;20040;-66
2023/04/06 01:32:08;;;;;;;9.13;6.03;;;1.90;99.90;;;;;;5045286;28;20119;-66
2023/04/06 01:34:34;;;;;;;10.45;5.75;;;1.80;99.90;;;;;;5055336;28;20124;-66
2023/04/06 01:37:00;;;;;;;9.52;5.55;;;;;;;;;;5046015;28;20052;-66
2023/04/06 01:39:26;;;;;;;11.43;6.63;;;1.70;99.90;;;;;;5050064;28;20037;-66
2023/04/06 01:41:51;;;;;;;10.85;7.18;;;1.70;99.90;;;;;;5047517;28;20516;-66
2023/04/06 01:44:21;;;;;;;9.63;6.43;;;;;;;;;;5046473;28;20478;-67
2023/04/06 01:46:46;;;;;;;9.73;5.90;;;1.70;99.90;;;;;;5048961;28;20106;-66
2023/04/06 01:49:12;;;;;;;9.95;6.43;;;1.60;99.90;;;;;;5040835;28;20763;-66
2023/04/06 01:51:38;;;;;;;10.00;6.47;;;1.50;99.90;;;;;;5040828;28;20037;-66
2023/04/06 01:54:05;;;;;;;9.63;6.60;;;;;;;;;;5047476;28;20037;-67
2023/04/06 01:56:31;;;;;;;10.40;7.13;;;;;;;;;;5047849;28;20037;-67
2023/04/06 01:58:57;;;;;;;10.20;6.72;;;;;;;;;;5048391;28;20044;-67
2023/04/06 02:01:23;;;;;;;10.70;6.65;;;1.60;99.90;;;;;;5049334;28;20060;-66
2023/04/06 02:03:49;;;;;;;13.55;6.63;;;;;;;;;;5042551;28;20494;-67
2023/04/06 02:06:14;;;;;;;10.07;6.63;;;1.50;99.90;;;;;;5047901;28;20463;-65
2023/04/06 02:08:40;;;;;;;9.77;6.50;;;;;;;;;;5038654;28;20108;-66
2023/04/06 02:11:06;;;;;;;10.15;7.15;;;;;;;;;;5042583;28;20056;-66
2023/04/06 02:13:32;;;;;;;9.60;6.25;;;1.40;99.90;;;;;;5049234;28;20037;-66
2023/04/06 02:15:58;;;;;;;9.43;6.13;;;1.30;99.90;;;;;;5044973;28;20516;-66
2023/04/06 02:18:24;;;;;;;10.25;6.25;;;1.30;99.90;;;;;;5046988;28;20041;-66
2023/04/06 02:20:49;;;;;;;12.75;6.70;;;1.40;99.90;;;;;;5042241;28;20041;-65
2023/04/06 02:23:16;;;;;;;9.48;6.28;;;;;;;;;;5048221;28;20063;-67
2023/04/06 02:25:42;;;;;;;11.23;7.00;;;;;;;;;;5054215;28;20052;-66
2023/04/06 02:28:07;;;;;;;10.88;6.95;;;1.40;99.90;;;;;;5048408;28;20048;-66
2023/04/06 02:30:33;;;;;;;12.93;7.03;;;;;;;;;;5048601;28;20101;-67
2023/04/06 02:33:03;;;;;;;9.88;6.95;;;;;;;;;;5043469;28;20049;-67
2023/04/06 02:35:29;;;;;;;9.73;6.38;;;;;;;;;;5049174;28;20037;-67
2023/04/06 02:37:55;;;;;;;13.05;6.90;;;;;;;;;;5045538;28;20049;-67
2023/04/06 02:40:21;;;;;;;11.07;6.60;;;1.20;99.90;;;;;;5047463;28;20419;-67
2023/04/06 02:42:47;;;;;;;10.70;6.65;;;;;;;;;;5042721;28;20035;-67
2023/04/06 02:45:13;;;;;;;10.52;6.53;;;1.10;99.90;;;;;;5047301;28;20076;-67
2023/04/06 02:47:39;;;;;;;10.90;6.57;;;1.20;99.90;;;;;;5045565;28;20052;-67
2023/04/06 02:50:05;;;;;;;9.55;6.18;;;;;;;;;;5042359;28;20537;-67
2023/04/06 02:52:31;;;;;;;9.43;6.25;;;;;;;;;;5045669;28;20423;-66
2023/04/06 02:54:57;;;;;;;11.40;6.55;;;;;;;;;;5039495;28;20083;-67
2023/04/06 02:57:23;;;;;;;9.32;6.03;;;;;;;;;;5048429;28;20048;-68
2023/04/06 02:59:49;;;;;;;9.23;5.82;;;1.20;99.90;;;;;;5040842;28;20048;-67
2023/04/06 03:02:14;;;;;;;11.40;7.10;;;1.20;99.90;;;;;;5046850;28;20037;-67
2023/04/06 03:04:40;;;;;;;12.10;6.95;;;;;;;;;;5043219;28;20055;-66
2023/04/06 03:07:06;;;;;;;10.82;6.43;;;;;;;;;;5054534;28;20047;-67
2023/04/06 03:09:33;;;;;;;10.88;6.70;;;1.10;99.90;;;;;;5047488;28;20048;-67
2023/04/06 03:11:59;;;;;;;11.40;7.85;;;;;;;;;;5046168;28;20037;-67
2023/04/06 03:14:25;;;;;;;10.60;6.93;;;1.10;99.90;;;;;;5048259;28;20137;-68
2023/04/06 03:16:51;;;;;;;10.95;6.68;;;;;;;;;;5046545;28;20041;-67
2023/04/06 03:19:20;;;;;;;11.10;6.80;;;;;;;;;;5055974;28;20041;-67
2023/04/06 03:21:47;;;;;;;10.55;6.82;;;;;;;;;;5046302;28;20033;-67
2023/04/06 03:24:13;;;;;;;12.40;7.07;;;1.10;99.90;;;;;;5045723;28;20076;-67
2023/04/06 03:26:39;;;;;;;10.10;6.72;;;;;;;;;;5041368;28;20041;-67
2023/04/06 03:29:06;;;;;;;9.27;6.30;;;;;;;;;;5044614;28;20426;-68
2023/04/06 03:31:32;;;;;;;10.90;6.53;;;;;;;;;;5043107;28;20128;-67
2023/04/06 03:33:59;;;;;;;9.50;6.55;;;;;;;;;;5046829;28;20043;-66
2023/04/06 03:36:26;;;;;;;8.95;6.30;;;;;;;;;;5055363;28;20075;-68
2023/04/06 03:38:53;;;;;;;12.13;7.22;;;;;;;;;;5050225;28;20049;-68
2023/04/06 03:41:19;;;;;;;12.23;7.38;;;;;;;;;;5127334;22;20046;-65
2023/04/06 03:43:46;;;;;;;10.95;6.97;;;;;;;;;;5030781;28;20438;-65
2023/04/06 03:46:12;;;;;;;10.63;7.20;;;;;;;;;;5047274;22;20095;-87
2023/04/06 03:48:38;;;;;;;11.85;6.85;;;;;;;;;;5000407;28;21452;-89
2023/04/06 03:51:06;;;;;;;9.93;7.07;;;;;;;;;;5017107;28;20040;-91
2023/04/06 03:53:32;;;;;;;11.15;6.57;;;;;;;;;;4995539;28;20125;-89
2023/04/06 03:56:01;;;;;;;10.43;6.75;;;;;;;;;;4994394;28;20156;-91
2023/04/06 04:05:17;;;;;;;18.23;7.03;;;;;;;;;;4977442;28;20096;-91
2023/04/06 04:11:21;;;;;;;13.88;7.25;;;;;;;;;;5007647;28;20108;-90
2023/04/06 04:13:50;;;;;;;11.05;7.57;;;;;;;;;;4994564;28;20077;-89
2023/04/06 04:16:18;;;;;;;11.15;7.13;;;;;;;;;;4996650;28;20050;-89
2023/04/06 04:18:47;;;;;;;10.38;6.78;;;;;;;;;;5099235;22;20248;-67
2023/04/06 04:21:13;;;;;;;10.52;7.45;;;;;;;;;;5040074;28;20061;-67
2023/04/06 04:23:39;;;;;;;10.65;7.45;;;;;;;;;;5055711;28;20071;-67
2023/04/06 04:26:05;;;;;;;13.02;7.55;;;0.90;99.90;;;;;;5045557;28;20361;-67
2023/04/06 04:28:31;;;;;;;13.68;7.65;;;;;;;;;;5044354;28;20041;-66
2023/04/06 04:30:57;;;;;;;12.05;7.38;;;;;;;;;;5065163;22;20031;-66
2023/04/06 04:33:23;;;;;;;11.18;6.75;;;1.20;99.90;;;;;;5062415;28;20103;-67
2023/04/06 04:35:49;;;;;;;10.73;7.38;;;1.30;99.90;;;;;;5033919;28;20052;-67
2023/04/06 04:38:15;;;;;;;10.75;7.03;;;;;;;;;;5065829;28;20387;-67
2023/04/06 04:40:40;;;;;;;12.05;7.20;;;0.70;99.90;;;;;;5049591;28;20477;-67
2023/04/06 04:43:06;;;;;;;10.23;6.80;;;1.50;99.90;;;;;;5038587;28;20090;-66
2023/04/06 04:45:32;;;;;;;12.70;7.57;;;1.20;99.90;;;;;;5030203;28;20037;-67
2023/04/06 04:47:57;;;;;;;12.95;7.25;;;1.20;99.90;;;;;;5045217;28;20045;-67
2023/04/06 04:50:23;;;;;;;13.70;7.85;;;0.90;99.90;;;;;;5047656;28;20037;-67
2023/04/06 04:52:49;;;;;;;10.15;6.70;;;0.80;99.90;;;;;;5038422;28;20029;-67
2023/04/06 04:55:15;;;;;;;12.65;7.55;;;1.20;99.90;;;;;;5028214;28;20037;-67
2023/04/06 04:57:40;;;;;;;13.00;7.45;;;1.10;99.90;;;;;;5043096;28;20106;-67
2023/04/06 05:00:06;;;;;;;11.10;7.28;;;;;;;;;;5043117;28;20490;-67
2023/04/06 05:02:32;;;;;;;14.05;7.38;;;;;;;;;;5048950;22;20043;-69
2023/04/06 05:04:59;;;;;;;11.68;7.47;;;;;;;;;;5106909;22;20099;-70
2023/04/06 05:07:24;;;;;;;11.75;7.00;;;1.40;99.90;;;;;;5061568;22;20041;-70
2023/04/06 05:09:50;;;;;;;11.27;7.35;;;1.30;99.90;;;;;;5034924;28;20083;-69
2023/04/06 05:12:16;;;;;;;11.15;7.53;;;1.30;99.90;;;;;;5033434;28;20037;-69
2023/04/06 05:14:41;;;;;;;12.95;7.35;;;1.30;99.90;;;;;;5028843;28;20133;-69
2023/04/06 05:17:07;;;;;;;13.07;7.30;;;1.50;99.90;;;;;;5003115;28;20174;-69
2023/04/06 05:19:33;;;;;;;13.18;7.47;;;1.30;99.90;;;;;;5007458;28;20120;-69
2023/04/06 05:21:58;;;;;;;14.10;7.63;;;1.40;99.90;;;;;;5029768;28;20041;-69
2023/04/06 05:24:25;;;;;;;11.45;7.28;;;1.40;99.90;;;;;;4995385;28;20037;-69
2023/04/06 05:26:50;;;;;;;13.52;7.90;;;1.50;99.90;;;;;;5012184;28;20087;-69
2023/04/06 05:29:17;;;;;;;12.43;7.30;;;1.50;99.90;;;;;;4995742;28;20061;-69
2023/04/06 05:31:42;;;;;;;12.93;7.90;;;1.40;99.90;;;;;;5012121;28;20041;-69
2023/04/06 05:34:09;;;;;;;12.35;8.13;;;1.50;99.90;;;;;;5011872;28;20095;-69
2023/04/06 05:36:35;;;;;;;13.60;7.88;;;2.10;99.90;;;;;;5007660;28;20336;-69
2023/04/06 05:39:00;;;;;;;11.07;6.95;;;1.70;99.90;;;;;;5011968;28;20048;-69
2023/04/06 05:41:26;;;;;;;12.45;7.28;;;1.70;99.90;;;;;;5106067;23;20041;-68
2023/04/06 05:43:52;;;;;;;11.27;7.07;;;;;;;;;;5055933;28;20052;-68
2023/04/06 05:46:18;;;;;;;10.15;6.78;;;1.90;99.90;;;;;;5051219;28;20040;-68
2023/04/06 05:48:44;;;;;;;12.85;7.72;;;1.80;99.90;;;;;;5051002;28;20037;-69
2023/04/06 05:51:10;;;;;;;13.90;8.90;;;1.90;99.90;;;;;;5038140;28;20041;-69
2023/04/06 05:53:36;;;;;;;13.02;7.68;;;1.90;99.90;;;;;;5047741;28;20033;-69
2023/04/06 05:56:02;;;;;;;12.00;7.88;;;;;;;;;;5074985;22;20051;-69
2023/04/06 05:58:28;;;;;;;14.63;8.20;;;2.20;99.90;;;;;;5058609;28;20048;-67
2023/04/06 06:01:01;;;;;;;14.05;7.68;;;1.70;99.90;;;;;;5069180;28;20040;-67
2023/04/06 06:03:26;;;;;;;12.65;8.02;;;2.20;99.90;;;;;;5068560;28;20210;-68
2023/04/06 06:05:53;;;;;;;12.82;8.35;;;;;;;;;;5069332;28;20524;-68
2023/04/06 06:08:19;;;;;;;12.85;8.02;;;;;;;;;;5069015;28;20043;-68
2023/04/06 06:10:45;;;;;;;12.95;8.45;;;;;;;;;;5067574;28;20052;-68
2023/04/06 06:13:10;;;;;;;13.13;8.25;;;2.50;99.90;;;;;;5068954;28;20070;-68
2023/04/06 06:15:36;;;;;;;16.40;9.40;;;2.50;99.90;;;;;;5055959;28;20475;-67
2023/04/06 06:18:02;;;;;;;12.23;7.63;;;;;;;;;;5068832;28;20086;-67
2023/04/06 06:20:27;;;;;;;13.85;8.48;;;2.80;99.90;;;;;;5067832;28;20032;-67
2023/04/06 06:22:54;;;;;;;12.85;8.27;;;;;;;;;;5068520;28;20044;-68
2023/04/06 06:25:19;;;;;;;16.02;8.38;;;2.80;99.90;;;;;;5050720;28;20117;-68
2023/04/06 06:27:45;;;;;;;15.20;8.30;;;2.80;99.90;;;;;;5068960;28;20080;-68
2023/04/06 06:30:11;;;;;;;14.88;8.88;;;2.90;99.90;;;;;;5068801;28;20234;-68
2023/04/06 06:32:37;;;;;;;12.20;7.85;;;;;;;;;;5066750;28;20284;-66
2023/04/06 06:35:03;;;;;;;12.82;8.35;;;3.10;99.90;;;;;;5068852;28;20485;-66
2023/04/06 06:37:29;;;;;;;13.00;8.80;;;;;;;;;;5067702;28;20047;-67
2023/04/06 06:39:55;;;;;;;13.38;8.32;;;;;;;;;;5067440;28;20040;-66
2023/04/06 06:42:20;;;;;;;13.13;8.07;;;3.30;99.90;;;;;;5066390;28;20048;-67
2023/04/06 06:44:46;;;;;;;10.98;7.82;;;3.20;99.90;;;;;;5050766;28;20041;-66
2023/04/06 06:47:12;;;;;;;20.20;9.75;;;3.40;99.90;;;;;;5068572;28;20498;-66
2023/04/06 06:49:37;;;;;;;15.85;9.10;;;3.60;99.90;;;;;;5068759;28;20032;-65
2023/04/06 06:52:03;;;;;;;12.20;8.05;;;3.70;99.90;;;;;;5067837;28;20508;-66
2023/04/06 06:54:29;;;;;;;14.60;8.73;;;3.80;99.90;;;;;;5068140;28;20032;-67
2023/04/06 06:56:54;;;;;;;13.20;8.05;;;3.90;99.90;;;;;;5068581;28;20128;-67
2023/04/06 06:59:20;;;;;;;13.98;8.85;;;4.30;99.90;;;;;;5066791;28;20097;-65
2023/04/06 07:01:46;;;;;;;12.60;8.27;;;;;;;;;;5068729;28;20050;-65
2023/04/06 07:04:12;;;;;;;12.35;8.20;;;4.70;99.90;;;;;;5068536;28;20062;-66
2023/04/06 07:06:37;;;;;;;13.85;8.50;;;4.80;99.90;;;;;;5067567;28;20040;-67
2023/04/06 07:09:03;;;;;;;12.82;8.45;;;5.00;99.90;;;;;;5067199;28;20049;-66
2023/04/06 07:11:30;;;;;;;14.07;8.82;;;5.50;99.90;;;;;;5069401;28;20041;-66
2023/04/06 07:13:55;;;;;;;13.57;8.20;;;5.40;99.90;;;;;;5070814;28;20071;-66
2023/04/06 07:16:21;;;;;;;15.02;7.78;;;5.50;99.90;;;;;;5066093;28;20072;-66
2023/04/06 07:18:47;;;;;;;13.23;7.13;;;5.60;99.90;;;;;;5072125;28;20079;-66
2023/04/06 07:21:13;;;;;;;13.75;7.80;;;6.00;99.90;;;;;;5071983;28;20045;-67
2023/04/06 07:23:38;;;;;;;14.80;8.00;;;5.70;99.90;;;;;;5071321;28;20382;-66
2023/04/06 07:26:04;;;;;;;13.38;8.13;;;6.60;99.90;;;;;;5072543;28;20036;-67
2023/04/06 07:28:30;;;;;;;14.32;7.50;;;6.60;99.90;;;;;;5069992;28;20056;-66
2023/04/06 07:30:56;;;;;;;12.90;8.20;;;6.60;99.90;;;;;;5072262;28;20395;-66
2023/04/06 07:33:21;;;;;;;14.15;8.60;;;6.50;99.90;;;;;;5070821;28;20327;-67
2023/04/06 07:35:47;;;;;;;14.82;7.72;;;6.50;99.90;;;;;;5070508;28;20047;-66
2023/04/06 07:38:13;;;;;;;13.18;7.32;;;6.90;99.90;;;;;;5070010;28;20498;-67
2023/04/06 07:40:39;;;;;;;14.13;8.27;;;6.80;99.90;;;;;;5071318;28;20115;-66
2023/04/06 07:43:04;;;;;;;14.18;7.45;;;6.90;99.90;;;;;;5071597;28;20037;-65
2023/04/06 07:45:30;;;;;;;12.82;7.40;;;7.10;99.90;;;;;;5069828;28;20119;-66
2023/04/06 07:47:56;;;;;;;17.65;8.15;;;6.60;99.90;;;;;;5072238;28;20075;-68
2023/04/06 07:50:22;;;;;;;14.85;7.93;;;7.00;99.90;;;;;;5071309;28;20037;-66
2023/04/06 07:52:47;;;;;;;14.30;7.80;;;6.90;99.90;;;;;;5071488;28;20482;-66
2023/04/06 07:55:14;;;;;;;12.60;7.53;;;7.20;99.90;;;;;;5071841;28;20083;-67
2023/04/06 07:57:40;;;;;;;13.50;7.47;;;;;;;;;;5069728;28;20040;-66
2023/04/06 08:00:06;;;;;;;12.25;7.45;;;;;;;;;;5053384;28;20127;-66
2023/04/06 08:02:32;;;;;;;12.77;8.10;;;7.20;99.90;;;;;;5069140;28;20474;-66
2023/04/06 08:04:57;;;;;;;12.30;8.60;;;7.40;99.90;;;;;;5071538;28;20068;-66
2023/04/06 08:07:23;;;;;;;13.35;7.68;;;8.00;99.90;;;;;;5071413;28;20032;-66
2023/04/06 08:09:49;;;;;;;12.18;7.80;;;7.50;99.90;;;;;;5071203;28;20044;-66
2023/04/06 08:12:14;;;;;;;12.32;7.65;;;7.70;99.90;;;;;;5070984;28;20064;-66
2023/04/06 08:14:40;;;;;;;13.48;7.50;;;7.60;99.90;;;;;;5070364;28;20040;-67
2023/04/06 08:17:06;;;;;;;18.27;8.48;;;8.50;99.90;;;;;;5071504;28;20033;-67
2023/04/06 08:19:31;;;;;;;15.55;8.82;;;8.30;99.90;;;;;;5075749;28;20119;-66
2023/04/06 08:21:57;;;;;;;12.23;7.78;;;8.60;99.90;;;;;;5069144;28;20045;-66
2023/04/06 08:24:23;;;;;;;12.77;8.00;;;9.20;99.90;;;;;;5070912;28;20036;-67
2023/04/06 08:26:48;;;;;;;15.63;8.50;;;8.80;99.90;;;;;;5070083;28;20401;-67
2023/04/06 08:29:14;;;;;;;12.27;7.78;;;8.80;99.90;;;;;;5069779;28;20036;-66
2023/04/06 08:31:40;;;;;;;11.93;7.53;;;8.70;99.90;;;;;;5068562;28;20143;-66
2023/04/06 08:34:06;;;;;;;12.13;7.68;;;9.80;99.90;;;;;;5070771;28;20041;-67
2023/04/06 08:36:32;;;;;;;12.07;8.55;;;9.10;99.90;;;;;;5064732;28;20052;-66
2023/04/06 08:38:59;;;;;;;12.55;7.53;;;10.10;99.90;;;;;;5070532;28;20032;-66
2023/04/06 08:41:25;;;;;;;12.00;7.40;;;9.60;99.90;;;;;;5060242;28;20037;-66
2023/04/06 08:43:59;;;;;;;14.60;8.00;;;9.40;99.90;;;;;;5061540;28;20039;-66
2023/04/06 08:46:29;;;;;;;13.77;8.55;;;9.80;99.90;;;;;;5070234;28;20060;-67
2023/04/06 08:48:56;;;;;;;15.43;8.65;;;9.90;99.90;;;;;;5071905;28;20051;-66
2023/04/06 08:51:25;;;;;;;14.02;8.45;;;10.40;99.90;;;;;;5070263;28;20044;-67
2023/04/06 08:53:54;;;;;;;15.57;8.85;;;10.20;99.90;;;;;;5068742;28;20048;-66
2023/04/06 08:56:21;;;;;;;16.10;9.10;;;10.00;99.90;;;;;;5068944;28;20410;-66
2023/04/06 08:58:48;;;;;;;14.38;8.70;;;10.30;99.90;;;;;;5063917;28;20086;-67
2023/04/06 09:01:16;;;;;;;13.30;8.80;;;10.60;99.90;;;;;;5070528;28;20033;-67
2023/04/06 09:03:43;;;;;;;14.88;9.32;;;10.20;99.90;;;;;;5068200;28;20029;-67
2023/04/06 09:06:09;;;;;;;14.15;9.70;;;10.70;99.90;;;;;;5070283;28;20405;-66
2023/04/06 09:08:38;;;;;;;13.30;9.13;;;11.10;99.90;;;;;;5068634;28;20087;-66
2023/04/06 09:11:04;;;;;;;16.15;9.13;;;10.60;99.90;;;;;;5069022;28;20048;-66
2023/04/06 09:13:30;;;;;;;15.35;9.63;;;10.80;99.90;;;;;;5064397;28;20051;-66
2023/04/06 09:16:04;;;;;;;14.00;9.32;;;10.70;99.90;;;;;;5070335;28;20037;-66
2023/04/06 09:18:31;;;;;;;14.52;9.05;;;11.30;99.90;;;;;;5068389;28;20048;-67
2023/04/06 09:21:07;;;;;;;14.60;9.57;;;10.80;99.90;;;;;;5070096;28;20112;-66
2023/04/06 09:23:32;;;;;;;21.38;9.30;;;10.80;99.90;;;;;;5068834;28;20032;-67
2023/04/06 09:26:15;;;;;;;14.88;9.90;;;;;;;;;;5068090;28;20041;-66
2023/04/06 09:28:52;;;;;;;14.68;9.52;;;11.20;99.90;;;;;;5068045;28;20076;-66
2023/04/06 09:31:29;;;;;;;16.42;10.50;;;11.60;99.90;;;;;;5069880;28;20413;-66
2023/04/06 09:33:56;;;;;;;16.92;10.10;;;11.30;99.90;;;;;;5068982;28;20041;-66
2023/04/06 09:36:32;;;;;;;14.55;9.90;;;11.50;99.90;;;;;;5069464;28;20462;-66
2023/04/06 09:39:03;;;;;;;16.38;9.80;;;11.70;99.90;;;;;;5067963;28;20044;-66
2023/04/06 09:41:34;;;;;;;20.38;11.68;;;11.60;99.90;;;;;;5068130;28;20432;-66
2023/04/06 09:44:13;;;;;;;21.20;12.23;;;11.70;99.90;;;;;;5069394;28;20040;-67
2023/04/06 09:46:40;;;;;;;20.73;12.40;;;11.90;99.90;;;;;;5069014;28;20505;-66
2023/04/06 09:49:08;;;;;;;18.55;10.20;;;12.40;99.90;;;;;;5051797;28;20036;-67
2023/04/06 09:51:39;;;;;;;18.38;11.40;;;;;;;;;;5069049;28;20032;-66
2023/04/06 09:54:06;;;;;;;16.38;10.38;;;12.40;99.90;;;;;;5068736;28;20052;-67
2023/04/06 09:57:03;;;;;;;15.95;11.02;;;12.40;99.90;;;;;;5068781;28;20486;-66
2023/04/06 09:59:50;;;;;;;15.40;10.68;;;12.70;99.90;;;;;;5060388;28;20120;-67
2023/04/06 10:02:41;;;;;;;20.40;11.68;;;12.60;99.90;;;;;;5064520;28;20037;-66
2023/04/06 10:05:19;;;;;;;16.35;10.95;;;12.00;99.90;;;;;;5062365;28;20127;-66
2023/04/06 10:07:46;;;;;;;18.65;11.35;;;12.90;99.90;;;;;;5068834;28;20040;-67
2023/04/06 10:10:14;;;;;;;16.45;11.15;;;12.70;99.90;;;;;;5069397;28;20033;-66
2023/04/06 10:12:40;;;;;;;16.98;11.32;;;12.30;99.90;;;;;;5067012;28;20490;-67
2023/04/06 10:15:07;;;;;;;19.67;12.23;;;12.60;99.90;;;;;;5072040;28;20048;-66
2023/04/06 10:17:33;;;;;;;17.02;11.48;;;12.20;99.90;;;;;;5067554;28;20045;-66
2023/04/06 10:20:13;;;;;;;17.15;10.98;;;12.80;99.90;;;;;;5069489;28;20107;-66
2023/04/06 10:23:04;;;;;;;18.92;12.00;;;12.20;99.90;;;;;;5067989;28;20481;-67
2023/04/06 10:25:31;;;;;;;18.05;11.60;;;12.80;99.90;;;;;;5052323;28;20040;-67
2023/04/06 10:28:01;;;;;;;18.75;11.63;;;12.70;99.90;;;;;;5060131;28;20242;-67
2023/04/06 10:30:28;;;;;;;19.65;11.00;;;12.70;99.90;;;;;;5067613;28;20044;-66
2023/04/06 10:32:54;;;;;;;21.13;11.80;;;12.70;99.90;;;;;;5068522;28;20390;-67
2023/04/06 10:35:19;;;;;;;17.52;11.02;;;13.10;99.90;;;;;;5069229;28;20025;-67
2023/04/06 10:38:02;;;;;;;21.17;12.30;;;12.70;99.90;;;;;;5068201;28;20044;-66
2023/04/06 10:40:28;;;;;;;19.08;11.95;;;12.80;99.90;;;;;;5068511;28;20041;-67
2023/04/06 10:42:55;;;;;;;19.58;11.98;;;12.60;99.90;;;;;;5069954;28;20043;-66
2023/04/06 10:45:21;;;;;;;23.05;12.90;;;12.90;99.90;;;;;;5076064;28;20044;-66
2023/04/06 10:47:47;;;;;;;18.90;11.57;;;12.40;99.90;;;;;;5075379;28;20048;-67
2023/04/06 10:50:17;;;;;;;19.17;11.68;;;12.70;99.90;;;;;;5073018;28;20032;-67
2023/04/06 10:52:45;;;;;;;19.63;11.82;;;13.50;99.90;;;;;;5067503;28;20486;-66
2023/04/06 10:55:13;;;;;;;22.85;12.73;;;13.10;99.90;;;;;;5072009;28;20182;-66
2023/04/06 10:57:38;;;;;;;23.02;13.77;;;13.10;99.90;;;;;;5072541;28;20072;-66
2023/04/06 11:00:08;;;;;;;20.13;12.32;;;13.20;99.90;;;;;;5081967;22;20076;-67
2023/04/06 11:02:37;;;;;;;16.65;12.02;;;12.90;99.90;;;;;;5032582;28;20043;-68
2023/04/06 11:05:04;;;;;;;21.88;13.45;;;13.00;99.90;;;;;;5026406;28;20048;-68
2023/04/06 11:07:30;;;;;;;19.50;12.48;;;12.80;99.90;;;;;;5024584;28;20053;-68
2023/04/06 11:09:56;;;;;;;22.40;12.52;;;13.50;99.90;;;;;;5033326;28;20048;-67
2023/04/06 11:12:27;;;;;;;20.77;12.82;;;13.50;99.90;;;;;;5029052;28;20052;-68
2023/04/06 11:15:06;;;;;;;21.35;12.18;;;13.90;99.90;;;;;;5014172;28;20327;-68
2023/04/06 11:17:36;;;;;;;20.35;13.65;;;13.20;96.30;;;;;;5037252;28;20033;-68
2023/04/06 11:20:03;;;;;;;21.60;14.68;;;13.90;97.10;;;;;;5025032;28;20037;-68
2023/04/06 11:22:29;;;;;;;22.17;12.90;;;13.70;99.90;;;;;;5031255;28;20076;-68
2023/04/06 11:25:08;;;;;;;22.60;14.52;;;13.80;99.90;;;;;;5028155;28;20033;-68
2023/04/06 11:27:34;;;;;;;23.45;15.27;;;13.40;99.90;;;;;;5033004;28;20066;-68
2023/04/06 11:30:00;;;;;;;26.42;15.13;;;13.10;99.90;;;;;;5033070;28;20112;-68
2023/04/06 11:32:27;;;;;;;24.48;13.80;;;13.20;99.90;;;;;;5040849;28;20040;-67
2023/04/06 11:34:52;;;;;;;22.70;14.00;;;13.90;99.90;;;;;;5030403;28;20119;-67
2023/04/06 11:37:18;;;;;;;25.05;15.40;;;13.90;99.90;;;;;;5029159;28;20778;-68
2023/04/06 11:39:50;;;;;;;23.67;14.00;;;13.80;99.90;;;;;;5032531;28;20036;-68
2023/04/06 11:42:27;;;;;;;28.92;16.27;;;13.30;97.00;;;;;;5030036;28;20037;-68
2023/04/06 11:45:02;;;;;;;21.10;13.05;;;13.50;99.90;;;;;;5030082;28;20037;-68
2023/04/06 11:47:37;;;;;;;24.30;13.93;;;13.60;99.90;;;;;;5038169;28;20120;-68
2023/04/06 11:50:13;;;;;;;21.70;11.85;;;13.10;99.90;;;;;;5025528;28;20529;-68
2023/04/06 11:52:40;;;;;;;23.90;13.65;;;13.50;99.90;;;;;;5056674;28;20044;-68
2023/04/06 11:55:17;;;;;;;21.40;13.88;;;13.30;99.90;;;;;;5035431;28;20045;-68
2023/04/06 11:57:43;;;;;;;22.05;13.68;;;13.50;99.90;;;;;;5028889;28;20449;-67
2023/04/06 12:00:10;;;;;;;24.13;13.85;;;13.80;99.90;;;;;;5029236;28;20042;-68
2023/04/06 12:02:36;;;;;;;23.83;13.90;;;13.10;99.90;;;;;;5041794;28;20033;-68
2023/04/06 12:05:03;;;;;;;22.50;14.68;;;13.40;99.90;;;;;;5037709;28;20037;-68
2023/04/06 12:07:30;;;;;;;21.38;13.10;;;13.70;99.90;;;;;;5035458;28;20033;-68
2023/04/06 12:09:55;;;;;;;21.58;14.20;;;14.00;99.90;;;;;;5035623;28;20063;-68
2023/04/06 12:12:21;;;;;;;22.15;13.73;;;14.20;99.90;;;;;;5035986;28;20116;-68
2023/04/06 12:14:47;;;;;;;22.00;13.98;;;13.50;99.90;;;;;;5029160;28;20037;-68
2023/04/06 12:17:15;;;;;;;23.38;13.25;;;13.50;99.90;;;;;;5037083;28;20102;-68
2023/04/06 12:19:40;;;;;;;20.80;12.55;;;13.50;99.90;;;;;;5035668;28;20048;-69
2023/04/06 12:22:06;;;;;;;19.67;13.15;;;13.70;99.90;;;;;;5027467;28;20037;-68
2023/04/06 12:24:31;;;;;;;18.90;11.85;;;13.90;99.90;;;;;;5033724;28;20553;-68
2023/04/06 12:26:57;;;;;;;24.08;13.30;;;13.50;99.90;;;;;;5032557;28;20032;-68
2023/04/06 12:29:24;;;;;;;15.68;10.82;;;13.50;99.90;;;;;;5035749;28;20470;-68
2023/04/06 12:31:50;;;;;;;17.55;10.82;;;13.60;99.90;;;;;;5039997;28;20037;-68
2023/04/06 12:34:16;;;;;;;19.35;12.13;;;13.30;99.90;;;;;;5046472;28;20047;-68
2023/04/06 12:36:42;;;;;;;18.00;11.07;;;13.30;99.90;;;;;;5039009;28;20025;-68
2023/04/06 12:39:08;;;;;;;17.92;10.52;;;13.30;99.90;;;;;;5026080;28;20120;-68
2023/04/06 12:41:34;;;;;;;19.23;11.23;;;13.30;99.90;;;;;;5033980;28;20029;-68
2023/04/06 12:44:00;;;;;;;18.48;11.20;;;;;;;;;;5033656;28;20033;-68
2023/04/06 12:46:26;;;;;;;13.52;9.25;;;13.20;99.90;;;;;;5024345;28;20048;-68
2023/04/06 12:48:55;;;;;;;14.57;9.10;;;13.90;99.90;;;;;;5037505;28;20108;-67
2023/04/06 12:51:21;;;;;;;14.93;8.98;;;13.80;99.90;;;;;;5030809;28;20033;-68
2023/04/06 12:53:50;;;;;;;15.90;9.50;;;14.20;99.90;;;;;;5028353;28;20433;-68
2023/04/06 12:56:17;;;;;;;14.27;9.30;;;13.80;99.90;;;;;;5029018;28;20559;-68
2023/04/06 12:58:43;;;;;;;15.13;9.02;;;13.90;99.90;;;;;;5041674;28;20470;-68
2023/04/06 13:01:10;;;;;;;13.52;8.30;;;14.40;99.90;;;;;;5029683;28;20064;-68
2023/04/06 13:03:36;;;;;;;11.90;7.88;;;14.00;99.90;;;;;;5044915;28;20039;-68
2023/04/06 13:06:02;;;;;;;11.55;7.65;;;13.40;99.90;;;;;;5027342;28;20441;-68
2023/04/06 13:08:28;;;;;;;13.60;8.98;;;14.00;99.90;;;;;;5029690;28;20033;-68
2023/04/06 13:10:54;;;;;;;11.73;7.65;;;13.30;99.90;;;;;;5032275;28;20037;-68
2023/04/06 13:13:23;;;;;;;16.17;8.30;;;13.20;99.90;;;;;;5031220;28;20128;-68
2023/04/06 13:15:50;;;;;;;11.45;7.05;;;13.00;99.90;;;;;;5036875;28;20841;-68